Terminal Aerodrome Forecast
Issued by NWS

Home | Current Version | Previous Version | Text Only | Print | Product List | Glossary On
Versions: 1 2 3 4 5 6 7 8 9 10 11 12 13 14 15 16 17 18 19 20 21 22 23
000
FTUS42 KFFC 290953 AAA
TAFFTY
TAF AMD
KFTY 290953Z 2910/3006 00000KT P6SM SCT120 SCT250
     FM291400 31006KT P6SM SCT050 PROB30 2920/2924 6SM -TSRA
      BKN040CB
     FM300100 33003KT P6SM SCT100 BKN250=

USA.gov is the U.S. government's official web portal to all federal, state and local government web resources and services.